sensor_id;sensor_type;location;lat;lon;timestamp;pressure;altitude;pressure_sealevel;temperature;humidity
17438;BME280;8836;52.272;5.134;2022-07-15T00:01:42;102112.81;;;22.66;69.71
17438;BME280;8836;52.272;5.134;2022-07-15T00:04:09;102115.31;;;22.79;68.97
17438;BME280;8836;52.272;5.134;2022-07-15T00:06:36;102114.75;;;22.69;70.05
17438;BME280;8836;52.272;5.134;2022-07-15T00:09:03;102122.06;;;22.71;70.27
17438;BME280;8836;52.272;5.134;2022-07-15T00:11:31;102113.44;;;22.61;70.30
17438;BME280;8836;52.272;5.134;2022-07-15T00:13:58;102112.97;;;22.69;70.28
17438;BME280;8836;52.272;5.134;2022-07-15T00:16:25;102119.50;;;22.74;69.51
17438;BME280;8836;52.272;5.134;2022-07-15T00:18:52;102121.81;;;22.67;70.52
17438;BME280;8836;52.272;5.134;2022-07-15T00:21:19;102115.44;;;22.47;70.36
17438;BME280;8836;52.272;5.134;2022-07-15T00:23:46;102111.81;;;22.64;69.71
17438;BME280;8836;52.272;5.134;2022-07-15T00:26:13;102111.75;;;22.63;70.42
17438;BME280;8836;52.272;5.134;2022-07-15T00:28:41;102107.28;;;22.63;70.23
17438;BME280;8836;52.272;5.134;2022-07-15T00:31:08;102113.13;;;22.55;70.68
17438;BME280;8836;52.272;5.134;2022-07-15T00:33:35;102115.59;;;22.50;70.80
17438;BME280;8836;52.272;5.134;2022-07-15T00:36:02;102110.06;;;22.65;69.95
17438;BME280;8836;52.272;5.134;2022-07-15T00:38:29;102111.50;;;22.58;70.66
17438;BME280;8836;52.272;5.134;2022-07-15T00:40:56;102112.97;;;22.34;71.21
17438;BME280;8836;52.272;5.134;2022-07-15T00:43:22;102109.19;;;22.48;71.58
17438;BME280;8836;52.272;5.134;2022-07-15T00:45:51;102108.50;;;22.52;70.72
17438;BME280;8836;52.272;5.134;2022-07-15T00:48:18;102103.50;;;22.42;71.00
17438;BME280;8836;52.272;5.134;2022-07-15T00:50:45;102098.13;;;22.42;71.54
17438;BME280;8836;52.272;5.134;2022-07-15T00:53:16;102090.56;;;22.17;72.18
17438;BME280;8836;52.272;5.134;2022-07-15T00:55:45;102098.03;;;22.23;72.92
17438;BME280;8836;52.272;5.134;2022-07-15T00:58:17;102099.25;;;22.11;72.73
17438;BME280;8836;52.272;5.134;2022-07-15T01:00:47;102099.16;;;21.94;73.88
17438;BME280;8836;52.272;5.134;2022-07-15T01:03:17;102097.16;;;21.90;74.26
17438;BME280;8836;52.272;5.134;2022-07-15T01:05:47;102091.41;;;21.82;73.96
17438;BME280;8836;52.272;5.134;2022-07-15T01:08:14;102098.06;;;21.90;73.82
17438;BME280;8836;52.272;5.134;2022-07-15T01:10:43;102097.63;;;21.81;74.75
17438;BME280;8836;52.272;5.134;2022-07-15T01:13:11;102092.09;;;21.96;74.93
17438;BME280;8836;52.272;5.134;2022-07-15T01:15:37;102096.22;;;22.05;74.83
17438;BME280;8836;52.272;5.134;2022-07-15T01:18:04;102098.56;;;21.99;74.25
17438;BME280;8836;52.272;5.134;2022-07-15T01:20:33;102090.84;;;21.89;74.92
17438;BME280;8836;52.272;5.134;2022-07-15T01:23:01;102087.16;;;21.87;75.98
17438;BME280;8836;52.272;5.134;2022-07-15T01:25:28;102094.38;;;21.88;74.96
17438;BME280;8836;52.272;5.134;2022-07-15T01:27:55;102095.38;;;21.90;75.29
17438;BME280;8836;52.272;5.134;2022-07-15T01:30:22;102097.91;;;21.87;75.25
17438;BME280;8836;52.272;5.134;2022-07-15T01:32:50;102096.41;;;21.92;76.17
17438;BME280;8836;52.272;5.134;2022-07-15T01:35:17;102093.47;;;21.87;76.59
17438;BME280;8836;52.272;5.134;2022-07-15T01:37:44;102097.31;;;21.75;77.53
17438;BME280;8836;52.272;5.134;2022-07-15T01:40:13;102097.06;;;21.88;77.34
17438;BME280;8836;52.272;5.134;2022-07-15T01:42:39;102103.47;;;21.90;77.63
17438;BME280;8836;52.272;5.134;2022-07-15T01:45:08;102107.97;;;21.73;77.82
17438;BME280;8836;52.272;5.134;2022-07-15T01:47:42;102106.53;;;21.80;78.23
17438;BME280;8836;52.272;5.134;2022-07-15T01:50:09;102104.84;;;21.82;78.60
17438;BME280;8836;52.272;5.134;2022-07-15T01:52:36;102106.72;;;21.83;78.58
17438;BME280;8836;52.272;5.134;2022-07-15T01:55:04;102107.47;;;21.80;78.77
17438;BME280;8836;52.272;5.134;2022-07-15T01:57:32;102105.28;;;21.73;78.44
17438;BME280;8836;52.272;5.134;2022-07-15T01:59:59;102088.38;;;21.76;78.79
17438;BME280;8836;52.272;5.134;2022-07-15T02:02:26;102105.31;;;21.91;78.50
17438;BME280;8836;52.272;5.134;2022-07-15T02:04:53;102107.38;;;21.79;78.86
17438;BME280;8836;52.272;5.134;2022-07-15T02:07:20;102097.38;;;21.76;78.82
17438;BME280;8836;52.272;5.134;2022-07-15T02:09:47;102091.53;;;21.85;78.71
17438;BME280;8836;52.272;5.134;2022-07-15T02:12:14;102092.53;;;21.87;78.57
17438;BME280;8836;52.272;5.134;2022-07-15T02:14:42;102102.25;;;21.83;78.97
17438;BME280;8836;52.272;5.134;2022-07-15T02:17:09;102098.84;;;21.87;79.37
17438;BME280;8836;52.272;5.134;2022-07-15T02:19:36;102100.00;;;21.75;80.20
17438;BME280;8836;52.272;5.134;2022-07-15T02:22:03;102096.97;;;21.69;80.89
17438;BME280;8836;52.272;5.134;2022-07-15T02:24:29;102106.97;;;21.71;79.26
17438;BME280;8836;52.272;5.134;2022-07-15T02:26:57;102100.50;;;21.68;80.11
17438;BME280;8836;52.272;5.134;2022-07-15T02:29:23;102105.97;;;21.53;79.95
17438;BME280;8836;52.272;5.134;2022-07-15T02:31:52;102112.63;;;21.60;81.22
17438;BME280;8836;52.272;5.134;2022-07-15T02:34:18;102109.69;;;21.55;82.01
17438;BME280;8836;52.272;5.134;2022-07-15T02:36:45;102111.53;;;21.56;82.82
17438;BME280;8836;52.272;5.134;2022-07-15T02:39:12;102111.84;;;21.62;82.66
17438;BME280;8836;52.272;5.134;2022-07-15T02:41:39;102106.41;;;21.61;82.24
17438;BME280;8836;52.272;5.134;2022-07-15T02:44:06;102113.47;;;21.59;82.89
17438;BME280;8836;52.272;5.134;2022-07-15T02:46:33;102111.34;;;21.53;82.33
17438;BME280;8836;52.272;5.134;2022-07-15T02:49:01;102110.34;;;21.51;82.51
17438;BME280;8836;52.272;5.134;2022-07-15T02:51:28;102104.28;;;21.55;82.28
17438;BME280;8836;52.272;5.134;2022-07-15T02:53:54;102124.88;;;21.54;81.29
17438;BME280;8836;52.272;5.134;2022-07-15T02:56:21;102119.19;;;21.48;82.06
17438;BME280;8836;52.272;5.134;2022-07-15T02:58:48;102116.16;;;21.59;81.27
17438;BME280;8836;52.272;5.134;2022-07-15T03:01:15;102113.38;;;21.57;81.10
17438;BME280;8836;52.272;5.134;2022-07-15T03:03:42;102122.38;;;21.58;80.26
17438;BME280;8836;52.272;5.134;2022-07-15T03:06:10;102122.53;;;21.61;80.13
17438;BME280;8836;52.272;5.134;2022-07-15T03:08:37;102126.41;;;21.66;80.16
17438;BME280;8836;52.272;5.134;2022-07-15T03:11:05;102128.22;;;21.83;79.32
17438;BME280;8836;52.272;5.134;2022-07-15T03:13:31;102128.56;;;21.73;78.50
17438;BME280;8836;52.272;5.134;2022-07-15T03:15:58;102129.50;;;21.73;79.51
17438;BME280;8836;52.272;5.134;2022-07-15T03:18:25;102129.41;;;21.72;79.64
17438;BME280;8836;52.272;5.134;2022-07-15T03:20:52;102129.25;;;21.52;80.63
17438;BME280;8836;52.272;5.134;2022-07-15T03:23:21;102128.41;;;21.53;81.45
17438;BME280;8836;52.272;5.134;2022-07-15T03:25:47;102130.94;;;21.50;81.56
17438;BME280;8836;52.272;5.134;2022-07-15T03:28:14;102133.97;;;21.57;81.64
17438;BME280;8836;52.272;5.134;2022-07-15T03:30:41;102129.94;;;21.48;82.22
17438;BME280;8836;52.272;5.134;2022-07-15T03:33:08;102148.16;;;21.38;81.95
17438;BME280;8836;52.272;5.134;2022-07-15T03:35:35;102148.06;;;21.36;82.28
17438;BME280;8836;52.272;5.134;2022-07-15T03:38:02;102148.16;;;21.38;82.34
17438;BME280;8836;52.272;5.134;2022-07-15T03:40:30;102135.88;;;21.27;82.17
17438;BME280;8836;52.272;5.134;2022-07-15T03:42:57;102144.50;;;21.21;81.94
17438;BME280;8836;52.272;5.134;2022-07-15T03:45:24;102152.69;;;21.23;81.76
17438;BME280;8836;52.272;5.134;2022-07-15T03:47:51;102147.19;;;21.21;81.97
17438;BME280;8836;52.272;5.134;2022-07-15T03:50:18;102157.16;;;21.38;82.58
17438;BME280;8836;52.272;5.134;2022-07-15T03:52:45;102164.28;;;21.38;82.46
17438;BME280;8836;52.272;5.134;2022-07-15T03:55:12;102164.53;;;21.42;82.54
17438;BME280;8836;52.272;5.134;2022-07-15T03:57:40;102160.09;;;21.43;82.39
17438;BME280;8836;52.272;5.134;2022-07-15T04:00:08;102170.75;;;21.41;82.60
17438;BME280;8836;52.272;5.134;2022-07-15T04:02:35;102169.66;;;21.38;82.41
17438;BME280;8836;52.272;5.134;2022-07-15T04:05:02;102165.97;;;21.36;82.34
17438;BME280;8836;52.272;5.134;2022-07-15T04:07:29;102169.72;;;21.23;81.95
17438;BME280;8836;52.272;5.134;2022-07-15T04:09:56;102164.69;;;21.29;81.28
17438;BME280;8836;52.272;5.134;2022-07-15T04:12:23;102175.44;;;21.29;80.94
17438;BME280;8836;52.272;5.134;2022-07-15T04:14:51;102180.66;;;21.26;81.58
17438;BME280;8836;52.272;5.134;2022-07-15T04:17:18;102176.56;;;21.18;81.16
17438;BME280;8836;52.272;5.134;2022-07-15T04:19:46;102180.66;;;21.26;82.28
17438;BME280;8836;52.272;5.134;2022-07-15T04:22:14;102183.34;;;21.26;81.42
17438;BME280;8836;52.272;5.134;2022-07-15T04:24:42;102184.69;;;21.34;81.57
17438;BME280;8836;52.272;5.134;2022-07-15T04:27:09;102184.03;;;21.38;81.30
17438;BME280;8836;52.272;5.134;2022-07-15T04:29:36;102184.69;;;21.34;81.38
17438;BME280;8836;52.272;5.134;2022-07-15T04:32:05;102182.25;;;21.23;81.14
17438;BME280;8836;52.272;5.134;2022-07-15T04:34:32;102183.19;;;21.39;81.20
17438;BME280;8836;52.272;5.134;2022-07-15T04:36:59;102188.41;;;21.36;81.42
17438;BME280;8836;52.272;5.134;2022-07-15T04:39:26;102184.97;;;21.39;81.27
17438;BME280;8836;52.272;5.134;2022-07-15T04:41:53;102182.78;;;21.48;81.13
17438;BME280;8836;52.272;5.134;2022-07-15T04:44:20;102194.38;;;21.47;80.89
17438;BME280;8836;52.272;5.134;2022-07-15T04:46:47;102196.16;;;21.63;80.49
17438;BME280;8836;52.272;5.134;2022-07-15T04:49:15;102191.44;;;21.59;79.15
17438;BME280;8836;52.272;5.134;2022-07-15T04:51:59;102189.53;;;21.72;78.86
17438;BME280;8836;52.272;5.134;2022-07-15T04:54:26;102200.56;;;21.95;78.14
17438;BME280;8836;52.272;5.134;2022-07-15T04:56:53;102193.28;;;22.08;76.78
17438;BME280;8836;52.272;5.134;2022-07-15T04:59:20;102191.66;;;22.28;75.55
17438;BME280;8836;52.272;5.134;2022-07-15T05:01:46;102197.47;;;22.54;74.89
17438;BME280;8836;52.272;5.134;2022-07-15T05:04:15;102193.47;;;22.79;73.68
17438;BME280;8836;52.272;5.134;2022-07-15T05:06:41;102192.81;;;23.03;72.38
17438;BME280;8836;52.272;5.134;2022-07-15T05:09:08;102191.00;;;23.21;72.00
17438;BME280;8836;52.272;5.134;2022-07-15T05:11:36;102196.00;;;23.31;71.52
17438;BME280;8836;52.272;5.134;2022-07-15T05:14:02;102187.28;;;23.37;71.27
17438;BME280;8836;52.272;5.134;2022-07-15T05:16:29;102192.06;;;23.42;71.22
17438;BME280;8836;52.272;5.134;2022-07-15T05:18:56;102197.22;;;23.56;70.58
17438;BME280;8836;52.272;5.134;2022-07-15T05:21:25;102192.81;;;23.58;70.46
17438;BME280;8836;52.272;5.134;2022-07-15T05:23:52;102191.91;;;23.57;70.41
17438;BME280;8836;52.272;5.134;2022-07-15T05:26:19;102195.25;;;23.53;70.89
17438;BME280;8836;52.272;5.134;2022-07-15T05:28:46;102201.44;;;23.51;71.65
17438;BME280;8836;52.272;5.134;2022-07-15T05:31:13;102186.81;;;23.45;71.46
17438;BME280;8836;52.272;5.134;2022-07-15T05:33:40;102201.28;;;23.47;71.75
17438;BME280;8836;52.272;5.134;2022-07-15T05:36:11;102200.00;;;23.39;72.12
17438;BME280;8836;52.272;5.134;2022-07-15T05:38:41;102198.84;;;23.34;72.17
17438;BME280;8836;52.272;5.134;2022-07-15T05:41:08;102202.16;;;23.29;72.18
17438;BME280;8836;52.272;5.134;2022-07-15T05:43:35;102198.56;;;23.28;72.06
17438;BME280;8836;52.272;5.134;2022-07-15T05:46:03;102203.78;;;23.25;72.20
17438;BME280;8836;52.272;5.134;2022-07-15T05:48:30;102201.03;;;23.24;71.82
17438;BME280;8836;52.272;5.134;2022-07-15T05:50:57;102200.09;;;23.23;71.61
17438;BME280;8836;52.272;5.134;2022-07-15T05:53:24;102206.34;;;23.22;71.80
17438;BME280;8836;52.272;5.134;2022-07-15T05:55:52;102198.56;;;23.28;74.24
17438;BME280;8836;52.272;5.134;2022-07-15T05:58:19;102197.00;;;23.33;74.21
17438;BME280;8836;52.272;5.134;2022-07-15T06:00:46;102193.47;;;23.34;73.98
17438;BME280;8836;52.272;5.134;2022-07-15T06:03:13;102191.91;;;23.39;73.92
17438;BME280;8836;52.272;5.134;2022-07-15T06:05:40;102190.19;;;23.41;73.78
17438;BME280;8836;52.272;5.134;2022-07-15T06:08:07;102193.19;;;23.47;73.59
17438;BME280;8836;52.272;5.134;2022-07-15T06:10:34;102199.28;;;23.43;72.43
17438;BME280;8836;52.272;5.134;2022-07-15T06:13:03;102197.53;;;23.44;72.14
17438;BME280;8836;52.272;5.134;2022-07-15T06:15:30;102202.84;;;23.42;71.84
17438;BME280;8836;52.272;5.134;2022-07-15T06:17:58;102191.19;;;23.43;72.53
17438;BME280;8836;52.272;5.134;2022-07-15T06:20:25;102201.28;;;23.47;72.63
17438;BME280;8836;52.272;5.134;2022-07-15T06:22:53;102195.75;;;23.44;72.35
17438;BME280;8836;52.272;5.134;2022-07-15T06:25:20;102197.59;;;23.45;71.46
17438;BME280;8836;52.272;5.134;2022-07-15T06:27:47;102201.13;;;23.44;71.44
17438;BME280;8836;52.272;5.134;2022-07-15T06:30:16;102189.66;;;23.48;71.45
17438;BME280;8836;52.272;5.134;2022-07-15T06:32:43;102192.50;;;23.52;71.19
17438;BME280;8836;52.272;5.134;2022-07-15T06:35:10;102191.56;;;23.51;70.76
17438;BME280;8836;52.272;5.134;2022-07-15T06:37:38;102201.69;;;23.55;71.30
17438;BME280;8836;52.272;5.134;2022-07-15T06:40:07;102197.44;;;23.60;70.78
17438;BME280;8836;52.272;5.134;2022-07-15T06:42:34;102208.22;;;23.60;70.01
17438;BME280;8836;52.272;5.134;2022-07-15T06:45:01;102199.28;;;23.61;69.38
17438;BME280;8836;52.272;5.134;2022-07-15T06:47:29;102204.75;;;23.63;69.13
17438;BME280;8836;52.272;5.134;2022-07-15T06:49:57;102209.28;;;23.64;69.17
17438;BME280;8836;52.272;5.134;2022-07-15T06:52:24;102210.84;;;23.59;68.27
17438;BME280;8836;52.272;5.134;2022-07-15T06:54:50;102205.47;;;23.59;68.13
17438;BME280;8836;52.272;5.134;2022-07-15T06:57:19;102207.31;;;23.60;69.82
17438;BME280;8836;52.272;5.134;2022-07-15T06:59:46;102205.75;;;23.65;68.91
17438;BME280;8836;52.272;5.134;2022-07-15T07:02:13;102205.13;;;23.70;67.96
17438;BME280;8836;52.272;5.134;2022-07-15T07:04:41;102202.34;;;23.69;68.03
17438;BME280;8836;52.272;5.134;2022-07-15T07:07:08;102208.59;;;23.68;67.67
17438;BME280;8836;52.272;5.134;2022-07-15T07:09:35;102211.16;;;23.47;67.94
17438;BME280;8836;52.272;5.134;2022-07-15T07:12:03;102207.00;;;23.54;68.02
17438;BME280;8836;52.272;5.134;2022-07-15T07:14:29;102205.69;;;23.45;67.63
17438;BME280;8836;52.272;5.134;2022-07-15T07:16:56;102213.06;;;23.49;68.06
17438;BME280;8836;52.272;5.134;2022-07-15T07:19:23;102217.81;;;23.54;65.82
17438;BME280;8836;52.272;5.134;2022-07-15T07:21:51;102214.59;;;23.25;66.22
17438;BME280;8836;52.272;5.134;2022-07-15T07:24:18;102211.34;;;23.14;66.12
17438;BME280;8836;52.272;5.134;2022-07-15T07:26:45;102212.13;;;23.12;66.72
17438;BME280;8836;52.272;5.134;2022-07-15T07:29:12;102211.59;;;23.19;66.26
17438;BME280;8836;52.272;5.134;2022-07-15T07:31:42;102216.28;;;23.05;66.72
17438;BME280;8836;52.272;5.134;2022-07-15T07:34:09;102217.53;;;23.12;66.79
17438;BME280;8836;52.272;5.134;2022-07-15T07:36:36;102223.91;;;23.32;65.94
17438;BME280;8836;52.272;5.134;2022-07-15T07:39:04;102224.78;;;23.50;66.04
17438;BME280;8836;52.272;5.134;2022-07-15T07:41:31;102220.41;;;23.52;65.32
17438;BME280;8836;52.272;5.134;2022-07-15T07:43:58;102214.25;;;23.55;64.71
17438;BME280;8836;52.272;5.134;2022-07-15T07:46:25;102221.94;;;23.65;64.77
17438;BME280;8836;52.272;5.134;2022-07-15T07:48:52;102216.25;;;23.59;63.60
17438;BME280;8836;52.272;5.134;2022-07-15T07:51:19;102221.78;;;23.62;63.81
17438;BME280;8836;52.272;5.134;2022-07-15T07:53:46;102217.47;;;23.47;62.58
17438;BME280;8836;52.272;5.134;2022-07-15T07:56:14;102221.66;;;23.59;63.21
17438;BME280;8836;52.272;5.134;2022-07-15T07:58:41;102219.03;;;23.60;63.03
17438;BME280;8836;52.272;5.134;2022-07-15T08:01:08;102225.34;;;23.61;62.55
17438;BME280;8836;52.272;5.134;2022-07-15T08:03:35;102223.72;;;23.64;62.49
17438;BME280;8836;52.272;5.134;2022-07-15T08:06:02;102224.56;;;23.63;61.01
17438;BME280;8836;52.272;5.134;2022-07-15T08:08:29;102220.25;;;23.67;61.24
17438;BME280;8836;52.272;5.134;2022-07-15T08:10:57;102221.94;;;23.65;60.32
17438;BME280;8836;52.272;5.134;2022-07-15T08:13:27;102213.47;;;23.57;59.85
17438;BME280;8836;52.272;5.134;2022-07-15T08:15:55;102222.72;;;23.44;60.26
17438;BME280;8836;52.272;5.134;2022-07-15T08:18:23;102223.19;;;23.54;60.29
17438;BME280;8836;52.272;5.134;2022-07-15T08:20:51;102191.16;;;23.24;58.94
17438;BME280;8836;52.272;5.134;2022-07-15T08:23:18;102223.34;;;23.57;59.90
17438;BME280;8836;52.272;5.134;2022-07-15T08:25:50;102222.22;;;23.71;59.96
17438;BME280;8836;52.272;5.134;2022-07-15T08:28:17;102225.50;;;23.46;59.83
17438;BME280;8836;52.272;5.134;2022-07-15T08:30:46;102217.16;;;23.59;60.25
17438;BME280;8836;52.272;5.134;2022-07-15T08:33:13;102226.69;;;23.70;60.34
17438;BME280;8836;52.272;5.134;2022-07-15T08:35:40;102219.59;;;23.72;58.67
17438;BME280;8836;52.272;5.134;2022-07-15T08:38:09;102215.56;;;23.82;59.78
17438;BME280;8836;52.272;5.134;2022-07-15T08:40:38;102214.78;;;23.85;57.60
17438;BME280;8836;52.272;5.134;2022-07-15T08:43:08;102209.38;;;23.85;57.19
17438;BME280;8836;52.272;5.134;2022-07-15T08:45:38;102212.28;;;23.89;58.34
17438;BME280;8836;52.272;5.134;2022-07-15T08:48:07;102205.06;;;23.88;57.94
17438;BME280;8836;52.272;5.134;2022-07-15T08:50:35;102211.31;;;23.87;57.60
17438;BME280;8836;52.272;5.134;2022-07-15T08:53:03;102204.75;;;23.82;57.02
17438;BME280;8836;52.272;5.134;2022-07-15T08:55:31;102210.72;;;23.75;57.49
17438;BME280;8836;52.272;5.134;2022-07-15T08:57:58;102210.50;;;23.90;57.77
17438;BME280;8836;52.272;5.134;2022-07-15T09:00:27;102215.06;;;23.91;58.57
17438;BME280;8836;52.272;5.134;2022-07-15T09:02:57;102213.06;;;23.87;57.71
17438;BME280;8836;52.272;5.134;2022-07-15T09:05:28;102221.50;;;23.94;57.19
17438;BME280;8836;52.272;5.134;2022-07-15T09:08:01;102215.09;;;23.92;57.50
17438;BME280;8836;52.272;5.134;2022-07-15T09:10:46;102204.88;;;24.04;57.58
17438;BME280;8836;52.272;5.134;2022-07-15T09:13:27;102201.09;;;24.01;57.37
17438;BME280;8836;52.272;5.134;2022-07-15T09:15:57;102195.91;;;24.05;57.71
17438;BME280;8836;52.272;5.134;2022-07-15T09:18:26;102202.50;;;24.12;57.05
17438;BME280;8836;52.272;5.134;2022-07-15T09:20:55;102202.94;;;24.02;57.20
17438;BME280;8836;52.272;5.134;2022-07-15T09:23:26;102203.88;;;24.02;57.03
17438;BME280;8836;52.272;5.134;2022-07-15T09:25:59;102204.16;;;24.08;57.90
17438;BME280;8836;52.272;5.134;2022-07-15T09:28:38;102196.91;;;24.07;55.99
17438;BME280;8836;52.272;5.134;2022-07-15T09:31:06;102187.09;;;24.09;56.56
17438;BME280;8836;52.272;5.134;2022-07-15T09:34:00;102199.88;;;24.13;56.88
17438;BME280;8836;52.272;5.134;2022-07-15T09:36:31;102187.31;;;24.14;56.94
17438;BME280;8836;52.272;5.134;2022-07-15T09:39:01;102200.09;;;24.18;56.85
17438;BME280;8836;52.272;5.134;2022-07-15T09:41:31;102185.66;;;24.18;56.54
17438;BME280;8836;52.272;5.134;2022-07-15T09:44:02;102188.66;;;24.04;54.94
17438;BME280;8836;52.272;5.134;2022-07-15T09:46:43;102194.91;;;24.03;55.77
17438;BME280;8836;52.272;5.134;2022-07-15T09:49:13;102191.84;;;24.15;55.19
17438;BME280;8836;52.272;5.134;2022-07-15T09:51:48;102185.72;;;24.19;55.56
17438;BME280;8836;52.272;5.134;2022-07-15T09:54:17;102183.03;;;24.19;54.68
17438;BME280;8836;52.272;5.134;2022-07-15T09:56:45;102183.41;;;24.27;55.68
17438;BME280;8836;52.272;5.134;2022-07-15T09:59:12;102181.47;;;24.24;55.71
17438;BME280;8836;52.272;5.134;2022-07-15T10:01:41;102187.09;;;24.29;54.76
17438;BME280;8836;52.272;5.134;2022-07-15T10:04:10;102181.69;;;24.29;55.15
17438;BME280;8836;52.272;5.134;2022-07-15T10:06:38;102190.00;;;24.33;54.60
17438;BME280;8836;52.272;5.134;2022-07-15T10:09:07;102190.28;;;24.39;54.45
17438;BME280;8836;52.272;5.134;2022-07-15T10:11:40;102180.41;;;24.40;55.69
17438;BME280;8836;52.272;5.134;2022-07-15T10:14:51;102174.34;;;24.45;56.14
17438;BME280;8836;52.272;5.134;2022-07-15T10:17:51;102178.53;;;24.39;56.09
17438;BME280;8836;52.272;5.134;2022-07-15T10:20:51;102177.50;;;24.35;54.72
17438;BME280;8836;52.272;5.134;2022-07-15T10:23:59;102168.47;;;24.35;54.18
17438;BME280;8836;52.272;5.134;2022-07-15T10:26:53;102169.66;;;24.41;53.94
17438;BME280;8836;52.272;5.134;2022-07-15T10:29:23;102163.41;;;24.42;53.89
17438;BME280;8836;52.272;5.134;2022-07-15T10:31:57;102175.13;;;24.43;54.04
17438;BME280;8836;52.272;5.134;2022-07-15T10:34:30;102171.84;;;24.50;54.22
17438;BME280;8836;52.272;5.134;2022-07-15T10:37:02;102150.22;;;24.50;55.31
17438;BME280;8836;52.272;5.134;2022-07-15T10:39:53;102172.16;;;24.58;54.45
17438;BME280;8836;52.272;5.134;2022-07-15T10:42:23;102155.75;;;24.53;53.48
17438;BME280;8836;52.272;5.134;2022-07-15T10:45:07;102160.56;;;24.60;52.80
17438;BME280;8836;52.272;5.134;2022-07-15T10:47:34;102153.56;;;24.65;53.15
17438;BME280;8836;52.272;5.134;2022-07-15T10:50:37;102153.31;;;24.59;51.49
17438;BME280;8836;52.272;5.134;2022-07-15T10:53:22;102147.50;;;24.50;52.96
17438;BME280;8836;52.272;5.134;2022-07-15T10:55:50;102153.78;;;24.49;52.93
17438;BME280;8836;52.272;5.134;2022-07-15T10:58:17;102153.78;;;24.49;52.84
17438;BME280;8836;52.272;5.134;2022-07-15T11:00:45;102149.22;;;24.48;53.56
17438;BME280;8836;52.272;5.134;2022-07-15T11:03:15;102144.09;;;24.54;53.62
17438;BME280;8836;52.272;5.134;2022-07-15T11:06:05;102131.91;;;24.43;53.19
17438;BME280;8836;52.272;5.134;2022-07-15T11:09:03;102124.97;;;24.29;53.03
17438;BME280;8836;52.272;5.134;2022-07-15T11:11:49;102126.09;;;24.34;53.71
17438;BME280;8836;52.272;5.134;2022-07-15T11:14:47;102127.81;;;24.32;53.97
17438;BME280;8836;52.272;5.134;2022-07-15T11:17:21;102125.97;;;24.31;54.92
17438;BME280;8836;52.272;5.134;2022-07-15T11:19:52;102120.97;;;24.40;54.54
17438;BME280;8836;52.272;5.134;2022-07-15T11:22:24;102116.59;;;24.43;53.99
17438;BME280;8836;52.272;5.134;2022-07-15T11:24:51;102122.28;;;24.50;53.79
17438;BME280;8836;52.272;5.134;2022-07-15T11:27:19;102116.94;;;24.51;54.29
17438;BME280;8836;52.272;5.134;2022-07-15T11:29:50;102116.22;;;24.55;54.36
17438;BME280;8836;52.272;5.134;2022-07-15T11:32:19;102126.03;;;24.53;54.00
17438;BME280;8836;52.272;5.134;2022-07-15T11:34:50;102129.59;;;24.52;53.44
17438;BME280;8836;52.272;5.134;2022-07-15T11:37:17;102108.69;;;24.48;53.66
17438;BME280;8836;52.272;5.134;2022-07-15T11:39:48;102125.31;;;24.57;53.71
17438;BME280;8836;52.272;5.134;2022-07-15T11:42:22;102125.91;;;24.50;54.07
17438;BME280;8836;52.272;5.134;2022-07-15T11:45:09;102122.53;;;24.56;54.22
17438;BME280;8836;52.272;5.134;2022-07-15T11:47:51;102118.06;;;24.56;53.69
17438;BME280;8836;52.272;5.134;2022-07-15T11:50:18;102117.25;;;24.59;53.11
17438;BME280;8836;52.272;5.134;2022-07-15T11:52:45;102110.06;;;24.59;53.46
17438;BME280;8836;52.272;5.134;2022-07-15T11:55:14;102118.06;;;24.56;53.16
17438;BME280;8836;52.272;5.134;2022-07-15T11:57:45;102119.91;;;24.57;53.49
17438;BME280;8836;52.272;5.134;2022-07-15T12:00:14;102114.38;;;24.54;53.75
17438;BME280;8836;52.272;5.134;2022-07-15T12:02:41;102116.16;;;24.54;53.89
17438;BME280;8836;52.272;5.134;2022-07-15T12:05:09;102115.09;;;24.50;53.94
17438;BME280;8836;52.272;5.134;2022-07-15T12:07:44;102112.38;;;24.50;54.23
17438;BME280;8836;52.272;5.134;2022-07-15T12:10:14;102116.06;;;24.52;53.25
17438;BME280;8836;52.272;5.134;2022-07-15T12:12:46;102118.06;;;24.56;53.89
17438;BME280;8836;52.272;5.134;2022-07-15T12:15:19;102115.34;;;24.56;53.91
17438;BME280;8836;52.272;5.134;2022-07-15T12:17:47;102114.63;;;24.60;54.27
17438;BME280;8836;52.272;5.134;2022-07-15T12:20:14;102109.22;;;24.60;53.84
17438;BME280;8836;52.272;5.134;2022-07-15T12:23:06;102106.44;;;24.59;53.70
17438;BME280;8836;52.272;5.134;2022-07-15T12:25:35;102103.88;;;24.62;53.50
17438;BME280;8836;52.272;5.134;2022-07-15T12:28:02;102112.13;;;24.65;54.10
17438;BME280;8836;52.272;5.134;2022-07-15T12:30:34;102116.72;;;24.67;54.24
17438;BME280;8836;52.272;5.134;2022-07-15T12:33:16;102125.03;;;24.72;53.76
17438;BME280;8836;52.272;5.134;2022-07-15T12:35:43;102116.72;;;24.67;52.30
17438;BME280;8836;52.272;5.134;2022-07-15T12:38:26;102113.94;;;24.66;52.16
17438;BME280;8836;52.272;5.134;2022-07-15T12:41:05;102119.34;;;24.66;52.86
17438;BME280;8836;52.272;5.134;2022-07-15T12:43:51;102125.56;;;24.63;52.99
17438;BME280;8836;52.272;5.134;2022-07-15T12:46:18;102121.75;;;24.58;52.80
17438;BME280;8836;52.272;5.134;2022-07-15T12:48:47;102116.47;;;24.61;52.95
17438;BME280;8836;52.272;5.134;2022-07-15T12:51:15;102123.59;;;24.59;53.96
17438;BME280;8836;52.272;5.134;2022-07-15T12:53:43;102118.44;;;24.65;53.17
17438;BME280;8836;52.272;5.134;2022-07-15T12:56:12;102123.25;;;24.72;53.21
17438;BME280;8836;52.272;5.134;2022-07-15T12:58:39;102121.59;;;24.76;53.29
17438;BME280;8836;52.272;5.134;2022-07-15T13:01:09;102120.53;;;24.72;53.45
17438;BME280;8836;52.272;5.134;2022-07-15T13:03:37;102116.31;;;24.79;53.32
17438;BME280;8836;52.272;5.134;2022-07-15T13:06:05;102116.25;;;24.77;53.82
17438;BME280;8836;52.272;5.134;2022-07-15T13:08:35;102116.25;;;24.77;53.10
17438;BME280;8836;52.272;5.134;2022-07-15T13:11:05;102112.31;;;24.69;52.46
17438;BME280;8836;52.272;5.134;2022-07-15T13:13:36;102113.81;;;24.63;52.35